Time;durP1;ratioP1;P1;durP2;ratioP2;P2;SDS_P1;SDS_P2;PMS_P1;PMS_P2;Temp;Humidity;BMP_temperature;BMP_pressure;BME280_temperature;BME280_humidity;BME280_pressure;Samples;Min_cycle;Max_cycle;Signal;HPM_P1;HPM_P2
2022/01/09 00:00:18;;;;;;;1999.90;999.90;;;6.50;99.90;;;;;;5053016;28;20402;-71
2022/01/09 00:02:43;;;;;;;1999.90;999.90;;;6.50;99.90;;;;;;5053031;28;20402;-71
2022/01/09 00:05:10;;;;;;;1999.90;999.90;;;6.50;99.90;;;;;;5052728;28;20985;-70
2022/01/09 00:07:36;;;;;;;1999.90;999.90;;;6.50;99.90;;;;;;5052986;28;20178;-71
2022/01/09 00:10:03;;;;;;;1999.90;999.90;;;6.60;99.90;;;;;;5052862;28;20407;-71
2022/01/09 00:12:29;;;;;;;1999.90;999.90;;;6.50;99.90;;;;;;5052692;28;20481;-71
2022/01/09 00:14:54;;;;;;;1999.90;999.90;;;6.50;99.90;;;;;;5052553;28;20468;-71
2022/01/09 00:17:20;;;;;;;1999.90;999.90;;;6.60;99.90;;;;;;5052759;28;20217;-71
2022/01/09 00:19:46;;;;;;;1999.90;999.90;;;6.60;99.90;;;;;;5052729;28;20246;-70
2022/01/09 00:22:13;;;;;;;1999.90;999.90;;;6.60;99.90;;;;;;5052576;28;20199;-71
2022/01/09 00:24:39;;;;;;;1999.90;999.90;;;6.60;99.90;;;;;;5052341;28;20930;-70
2022/01/09 00:27:04;;;;;;;1999.90;999.90;;;6.70;99.90;;;;;;5052718;28;20410;-72
2022/01/09 00:29:30;;;;;;;1999.90;999.90;;;6.70;99.90;;;;;;5052732;28;20605;-71
2022/01/09 00:31:56;;;;;;;1999.90;999.90;;;6.70;99.90;;;;;;5052360;28;20199;-72
2022/01/09 00:34:22;;;;;;;1999.90;999.90;;;6.70;99.90;;;;;;5051018;28;20261;-70
2022/01/09 00:36:47;;;;;;;1999.90;999.90;;;6.70;99.90;;;;;;5052591;28;20590;-70
2022/01/09 00:39:13;;;;;;;1999.90;999.90;;;6.70;99.90;;;;;;5052457;28;20410;-68
2022/01/09 00:41:39;;;;;;;1999.90;999.90;;;6.80;99.90;;;;;;5052227;28;20215;-69
2022/01/09 00:44:05;;;;;;;1999.90;999.90;;;6.80;99.90;;;;;;5052062;28;20168;-70
2022/01/09 00:46:33;;;;;;;1999.90;999.90;;;6.80;99.90;;;;;;5052280;28;20182;-70
2022/01/09 00:48:59;;;;;;;1999.90;999.90;;;6.80;99.90;;;;;;5052235;28;20410;-68
2022/01/09 00:51:25;;;;;;;1999.90;999.90;;;6.70;99.90;;;;;;5052154;28;20915;-70
2022/01/09 00:53:51;;;;;;;1999.90;999.90;;;6.70;99.90;;;;;;5052022;28;20465;-70
2022/01/09 00:56:16;;;;;;;1999.90;999.90;;;6.70;99.90;;;;;;5051893;28;20163;-70
2022/01/09 00:58:42;;;;;;;1999.90;999.90;;;6.60;99.90;;;;;;5052132;28;20179;-70
2022/01/09 01:01:08;;;;;;;1999.90;999.90;;;6.60;99.90;;;;;;5051890;28;20249;-70
2022/01/09 01:03:34;;;;;;;1999.90;999.90;;;6.50;99.90;;;;;;5051723;28;20403;-70
2022/01/09 01:05:59;;;;;;;1999.90;999.90;;;6.40;99.90;;;;;;5051729;28;20183;-70
2022/01/09 01:08:25;;;;;;;1999.90;999.90;;;6.40;99.90;;;;;;5051992;28;20696;-70
2022/01/09 01:10:51;;;;;;;1999.90;999.90;;;6.40;99.90;;;;;;5051921;28;20246;-71
2022/01/09 01:13:17;;;;;;;1999.90;999.90;;;6.30;99.90;;;;;;5051883;28;20699;-70
2022/01/09 01:15:43;;;;;;;1999.90;999.90;;;6.20;99.90;;;;;;5051539;28;20437;-71
2022/01/09 01:18:09;;;;;;;1999.90;999.90;;;6.10;99.90;;;;;;5051934;28;20259;-71
2022/01/09 01:20:34;;;;;;;1999.90;999.90;;;6.20;99.90;;;;;;5051970;28;20684;-69
2022/01/09 01:23:00;;;;;;;1999.90;999.90;;;6.10;99.90;;;;;;5051799;28;20648;-69
2022/01/09 01:25:26;;;;;;;1999.90;999.90;;;6.10;99.90;;;;;;5051470;28;20686;-71
2022/01/09 01:27:52;;;;;;;1999.90;999.90;;;6.10;99.90;;;;;;5051812;28;20171;-70
2022/01/09 01:30:18;;;;;;;1999.90;999.90;;;6.00;99.90;;;;;;5051658;28;20426;-70
2022/01/09 01:32:44;;;;;;;1999.90;999.90;;;6.00;99.90;;;;;;5051931;28;20628;-70
2022/01/09 01:35:11;;;;;;;1999.90;999.90;;;5.90;99.90;;;;;;5051460;28;20402;-71
2022/01/09 01:37:40;;;;;;;1999.90;999.90;;;5.90;99.90;;;;;;5051701;28;20407;-70
2022/01/09 01:40:12;;;;;;;1999.90;999.90;;;5.80;99.90;;;;;;5051434;28;20402;-71
2022/01/09 01:42:37;;;;;;;1999.90;999.90;;;5.80;99.90;;;;;;5051679;28;20418;-72
2022/01/09 01:45:03;;;;;;;1999.90;999.90;;;5.70;99.90;;;;;;5051287;28;20467;-71
2022/01/09 01:47:29;;;;;;;1999.90;999.90;;;5.70;99.90;;;;;;5051535;28;20217;-71
2022/01/09 01:49:55;;;;;;;1999.90;999.90;;;5.70;99.90;;;;;;5051907;28;20429;-70
2022/01/09 01:52:26;;;;;;;1999.90;999.90;;;5.60;99.90;;;;;;5051521;28;20207;-69
2022/01/09 01:54:52;;;;;;;1999.90;999.90;;;5.60;99.90;;;;;;5051329;28;20203;-69
2022/01/09 01:57:18;;;;;;;1999.90;999.90;;;5.50;99.90;;;;;;5051586;28;20774;-69
2022/01/09 01:59:44;;;;;;;1999.90;999.90;;;5.40;99.90;;;;;;5051522;28;20536;-71
2022/01/09 02:02:09;;;;;;;1999.90;999.90;;;5.30;99.90;;;;;;5051449;28;20719;-70
2022/01/09 02:04:35;;;;;;;1999.90;999.90;;;5.20;99.90;;;;;;5051364;28;20696;-69
2022/01/09 02:07:03;;;;;;;1999.90;999.90;;;5.10;99.90;;;;;;5051415;28;20302;-72
2022/01/09 02:09:29;;;;;;;1999.90;999.90;;;5.10;99.90;;;;;;5051398;28;20254;-71
2022/01/09 02:11:54;;;;;;;1999.90;999.90;;;5.00;99.90;;;;;;5051250;28;20286;-71
2022/01/09 02:14:20;;;;;;;1999.90;999.90;;;5.00;99.90;;;;;;5051073;28;20171;-72
2022/01/09 02:16:48;;;;;;;1999.90;999.90;;;5.00;99.90;;;;;;5055042;28;20180;-71
2022/01/09 02:19:15;;;;;;;1999.90;999.90;;;4.90;99.90;;;;;;5055135;28;20228;-72
2022/01/09 02:21:43;;;;;;;1999.90;999.90;;;4.80;99.90;;;;;;5055116;28;20602;-73
2022/01/09 02:24:08;;;;;;;1999.90;999.90;;;4.80;99.90;;;;;;5055065;28;20159;-73
2022/01/09 02:26:34;;;;;;;1999.90;999.90;;;4.80;99.90;;;;;;5055037;28;20178;-74
2022/01/09 02:29:00;;;;;;;1999.90;999.90;;;4.80;99.90;;;;;;5054981;28;20163;-74
2022/01/09 02:31:25;;;;;;;1999.90;999.90;;;4.80;99.90;;;;;;5054787;28;20241;-75
2022/01/09 02:33:51;;;;;;;1999.90;999.90;;;4.90;99.90;;;;;;5054830;28;20313;-75
2022/01/09 02:36:17;;;;;;;1999.90;999.90;;;4.90;99.90;;;;;;5054723;28;20585;-75
2022/01/09 02:38:43;;;;;;;1999.90;999.90;;;4.90;99.90;;;;;;5054733;28;20641;-75
2022/01/09 02:41:08;;;;;;;1999.90;999.90;;;4.90;99.90;;;;;;5054630;28;20507;-76
2022/01/09 02:43:34;;;;;;;1999.90;999.90;;;5.00;99.90;;;;;;5055242;28;20661;-76
2022/01/09 02:46:17;;;;;;;1999.90;999.90;;;5.00;99.90;;;;;;5057081;28;20175;-76
2022/01/09 02:48:44;;;;;;;1999.90;999.90;;;5.00;99.90;;;;;;5056472;28;20168;-76
2022/01/09 02:51:15;;;;;;;1999.90;999.90;;;5.00;99.90;;;;;;5055278;28;20430;-76
2022/01/09 02:53:44;;;;;;;1999.90;999.90;;;5.00;99.90;;;;;;5054233;28;20540;-76
2022/01/09 02:56:11;;;;;;;1999.90;999.90;;;5.00;99.90;;;;;;5054161;28;20408;-76
2022/01/09 02:58:41;;;;;;;1999.90;999.90;;;5.00;99.90;;;;;;5054403;28;20441;-76
2022/01/09 03:01:08;;;;;;;1999.90;999.90;;;4.90;99.90;;;;;;5054285;28;20430;-77
2022/01/09 03:03:34;;;;;;;1999.90;999.90;;;5.00;99.90;;;;;;5054304;28;20194;-76
2022/01/09 03:06:00;;;;;;;1999.90;999.90;;;4.90;99.90;;;;;;5054191;28;20172;-76
2022/01/09 03:08:25;;;;;;;1999.90;999.90;;;4.90;99.90;;;;;;5054376;28;20560;-76
2022/01/09 03:10:51;;;;;;;1999.90;999.90;;;4.90;99.90;;;;;;5054451;28;20425;-75
2022/01/09 03:13:17;;;;;;;1999.90;999.90;;;5.00;99.90;;;;;;5055114;28;20207;-77
2022/01/09 03:15:43;;;;;;;1999.90;999.90;;;4.90;99.90;;;;;;5055538;28;20410;-77
2022/01/09 03:18:08;;;;;;;1999.90;999.90;;;4.90;99.90;;;;;;5055589;28;20251;-77
2022/01/09 03:20:34;;;;;;;1999.90;999.90;;;4.90;99.90;;;;;;5055243;28;20571;-76
2022/01/09 03:23:00;;;;;;;1999.90;999.90;;;4.90;99.90;;;;;;5054298;28;20500;-76
2022/01/09 03:25:26;;;;;;;1999.90;999.90;;;4.90;99.90;;;;;;5053440;28;20168;-76
2022/01/09 03:27:55;;;;;;;1999.90;999.90;;;4.90;99.90;;;;;;5053711;28;20172;-76
2022/01/09 03:30:22;;;;;;;1999.90;999.90;;;4.90;99.90;;;;;;5053625;28;20841;-76
2022/01/09 03:32:50;;;;;;;1999.90;999.90;;;4.90;99.90;;;;;;5053585;28;20449;-76
2022/01/09 03:35:18;;;;;;;1999.90;999.90;;;4.90;99.90;;;;;;5053226;28;20250;-76
2022/01/09 03:37:46;;;;;;;1999.90;999.90;;;4.90;99.90;;;;;;5053517;28;20200;-75
2022/01/09 03:40:15;;;;;;;1999.90;999.90;;;4.90;99.90;;;;;;5053358;28;20507;-75
2022/01/09 03:42:41;;;;;;;1999.90;999.90;;;5.00;99.90;;;;;;5053486;28;20168;-75
2022/01/09 03:45:08;;;;;;;1999.90;999.90;;;5.00;99.90;;;;;;5053144;28;20896;-75
2022/01/09 03:47:35;;;;;;;1999.90;999.90;;;5.00;99.90;;;;;;5053352;28;20175;-74
2022/01/09 03:50:07;;;;;;;1999.90;999.90;;;5.00;99.90;;;;;;5053178;28;20456;-75
2022/01/09 03:52:34;;;;;;;1999.90;999.90;;;5.10;99.90;;;;;;5053161;28;20449;-75
2022/01/09 03:54:59;;;;;;;1999.90;999.90;;;5.10;99.90;;;;;;5052970;28;20199;-75
2022/01/09 03:57:25;;;;;;;1999.90;999.90;;;5.20;99.90;;;;;;5053132;28;20448;-74
2022/01/09 03:59:50;;;;;;;1999.90;999.90;;;5.30;99.90;;;;;;5053142;28;20168;-74
2022/01/09 04:02:16;;;;;;;1999.90;999.90;;;5.30;99.90;;;;;;5053055;28;20203;-74
2022/01/09 04:04:42;;;;;;;1999.90;999.90;;;5.30;99.90;;;;;;5052738;28;20515;-74
2022/01/09 04:07:07;;;;;;;1999.90;999.90;;;5.30;99.90;;;;;;5052943;28;20168;-73
2022/01/09 04:09:40;;;;;;;1999.90;999.90;;;5.40;99.90;;;;;;5052985;28;20633;-74
2022/01/09 04:12:15;;;;;;;1999.90;999.90;;;5.40;99.90;;;;;;5052928;28;20203;-74
2022/01/09 04:14:48;;;;;;;1999.90;999.90;;;5.40;99.90;;;;;;5052587;28;20394;-74
2022/01/09 04:17:27;;;;;;;1999.90;999.90;;;5.40;99.90;;;;;;5052875;28;20413;-75
2022/01/09 04:19:53;;;;;;;1999.90;999.90;;;5.40;99.90;;;;;;5052920;28;20394;-75
2022/01/09 04:22:19;;;;;;;1999.90;999.90;;;5.50;99.90;;;;;;5052609;28;20198;-76
2022/01/09 04:24:44;;;;;;;1999.90;999.90;;;5.50;99.90;;;;;;5052419;28;20168;-76
2022/01/09 04:27:10;;;;;;;1999.90;999.90;;;5.50;99.90;;;;;;5052596;28;20172;-77
2022/01/09 04:29:35;;;;;;;1999.90;999.90;;;5.50;99.90;;;;;;5052587;28;20195;-77
2022/01/09 04:32:01;;;;;;;1999.90;999.90;;;5.50;99.90;;;;;;5051190;28;20211;-77
2022/01/09 04:34:27;;;;;;;1999.90;999.90;;;5.60;99.90;;;;;;5052498;28;20167;-77
2022/01/09 04:36:53;;;;;;;1999.90;999.90;;;5.60;99.90;;;;;;5053832;28;20537;-77
2022/01/09 04:39:18;;;;;;;1999.90;999.90;;;5.60;99.90;;;;;;5053827;28;20506;-78
2022/01/09 04:41:44;;;;;;;1999.90;999.90;;;5.70;99.90;;;;;;5054064;28;20257;-77
2022/01/09 04:44:09;;;;;;;1999.90;999.90;;;5.70;99.90;;;;;;5053952;28;20180;-77
2022/01/09 04:46:44;;;;;;;1999.90;999.90;;;5.70;99.90;;;;;;5054731;28;20214;-77
2022/01/09 04:49:10;;;;;;;1999.90;999.90;;;5.70;99.90;;;;;;5056539;28;20224;-77
2022/01/09 04:51:36;;;;;;;1999.90;999.90;;;5.70;99.90;;;;;;5056381;28;20426;-77
2022/01/09 04:54:03;;;;;;;1999.90;999.90;;;5.70;99.90;;;;;;5055227;28;20191;-77
2022/01/09 04:56:29;;;;;;;1999.90;999.90;;;5.80;99.90;;;;;;5055261;28;20318;-78
2022/01/09 04:58:54;;;;;;;1999.90;999.90;;;5.80;99.90;;;;;;5055397;28;20903;-78
2022/01/09 05:01:20;;;;;;;1999.90;999.90;;;5.80;99.90;;;;;;5055053;28;20179;-78
2022/01/09 05:03:46;;;;;;;1999.90;999.90;;;5.80;99.90;;;;;;5054915;28;20172;-78
2022/01/09 05:06:11;;;;;;;1999.90;999.90;;;5.80;99.90;;;;;;5054540;28;20835;-78
2022/01/09 05:08:37;;;;;;;1999.90;999.90;;;5.80;99.90;;;;;;5055190;28;20171;-78
2022/01/09 05:11:02;;;;;;;1999.90;999.90;;;5.80;99.90;;;;;;5054269;28;20191;-78
2022/01/09 05:13:28;;;;;;;1999.90;999.90;;;5.80;99.90;;;;;;5054362;28;20198;-77
2022/01/09 05:15:55;;;;;;;1999.90;999.90;;;5.80;99.90;;;;;;5054866;28;20172;-77
2022/01/09 05:18:21;;;;;;;1999.90;999.90;;;5.80;99.90;;;;;;5055065;28;20170;-77
2022/01/09 05:20:46;;;;;;;1999.90;999.90;;;5.90;99.90;;;;;;5054839;28;20425;-77
2022/01/09 05:23:12;;;;;;;1999.90;999.90;;;5.80;99.90;;;;;;5054976;28;20405;-77
2022/01/09 05:25:38;;;;;;;1999.90;999.90;;;5.90;99.90;;;;;;5054192;28;20254;-77
2022/01/09 05:28:04;;;;;;;1999.90;999.90;;;5.80;99.90;;;;;;5052677;28;20915;-79
2022/01/09 05:30:29;;;;;;;1999.90;999.90;;;5.80;99.90;;;;;;5052356;28;20601;-81
2022/01/09 05:32:55;;;;;;;1999.90;999.90;;;5.80;99.90;;;;;;5050985;28;20572;-80
2022/01/09 05:35:22;;;;;;;1999.90;999.90;;;5.80;99.90;;;;;;5052113;28;20174;-80
2022/01/09 05:37:48;;;;;;;1999.90;999.90;;;5.80;99.90;;;;;;5052602;28;20156;-79
2022/01/09 05:40:14;;;;;;;1999.90;999.90;;;5.80;99.90;;;;;;5052219;28;20466;-80
2022/01/09 05:42:39;;;;;;;1999.90;999.90;;;5.80;99.90;;;;;;5052244;28;20300;-80
2022/01/09 05:45:07;;;;;;;1999.90;999.90;;;5.80;99.90;;;;;;5052239;28;20171;-81
2022/01/09 05:47:33;;;;;;;1999.90;999.90;;;5.70;99.90;;;;;;5052196;28;20278;-79
2022/01/09 05:49:59;;;;;;;1999.90;999.90;;;5.70;99.90;;;;;;5054997;28;20457;-80
2022/01/09 05:52:24;;;;;;;1999.90;999.90;;;5.70;99.90;;;;;;5056726;28;20198;-80
2022/01/09 05:54:50;;;;;;;1999.90;999.90;;;5.80;99.90;;;;;;5056492;28;20164;-79
2022/01/09 05:57:15;;;;;;;1999.90;999.90;;;5.80;99.90;;;;;;5056404;28;20172;-80
2022/01/09 05:59:41;;;;;;;1999.90;999.90;;;5.70;99.90;;;;;;5056470;28;20164;-80
2022/01/09 06:02:07;;;;;;;1999.90;999.90;;;5.80;99.90;;;;;;5056647;28;20199;-80
2022/01/09 06:04:32;;;;;;;1999.90;999.90;;;5.80;99.90;;;;;;5056123;28;20176;-80
2022/01/09 06:06:58;;;;;;;1999.90;999.90;;;5.70;99.90;;;;;;5055079;28;20529;-79
2022/01/09 06:09:23;;;;;;;1999.90;999.90;;;5.70;99.90;;;;;;5055956;28;20220;-80
2022/01/09 06:11:49;;;;;;;1999.90;999.90;;;5.70;99.90;;;;;;5056242;28;20191;-80
2022/01/09 06:14:15;;;;;;;1999.90;999.90;;;5.70;99.90;;;;;;5055935;28;20164;-81
2022/01/09 06:16:40;;;;;;;1999.90;999.90;;;5.70;99.90;;;;;;5055723;28;20644;-80
2022/01/09 06:19:07;;;;;;;1999.90;999.90;;;5.70;99.90;;;;;;5056212;28;20172;-81
2022/01/09 06:21:33;;;;;;;1999.90;999.90;;;5.70;99.90;;;;;;5057079;28;20201;-79
2022/01/09 06:23:58;;;;;;;1999.90;999.90;;;5.70;99.90;;;;;;5057614;28;20406;-79
2022/01/09 06:26:24;;;;;;;1999.90;999.90;;;5.70;99.90;;;;;;5056884;28;20553;-79
2022/01/09 06:28:49;;;;;;;1999.90;999.90;;;5.70;99.90;;;;;;5057610;28;20176;-79
2022/01/09 06:31:15;;;;;;;1999.90;999.90;;;5.70;99.90;;;;;;5057585;28;20198;-79
2022/01/09 06:33:41;;;;;;;1999.90;999.90;;;5.70;99.90;;;;;;5056200;28;20664;-79
2022/01/09 06:36:06;;;;;;;1999.90;999.90;;;5.70;99.90;;;;;;5054875;28;20192;-79
2022/01/09 06:38:32;;;;;;;1999.90;999.90;;;5.70;99.90;;;;;;5057660;28;20164;-80
2022/01/09 06:40:58;;;;;;;1999.90;999.90;;;5.70;99.90;;;;;;5055854;28;20207;-80
2022/01/09 06:43:23;;;;;;;1999.90;999.90;;;5.60;99.90;;;;;;5057746;28;20206;-79
2022/01/09 06:45:49;;;;;;;1999.90;999.90;;;5.60;99.90;;;;;;5055245;28;20337;-79
2022/01/09 06:48:14;;;;;;;1999.90;999.90;;;5.60;99.90;;;;;;5055401;28;20168;-81
2022/01/09 06:50:40;;;;;;;1999.90;999.90;;;5.50;99.90;;;;;;5055221;28;20649;-81
2022/01/09 06:53:06;;;;;;;1999.90;999.90;;;5.50;99.90;;;;;;5055684;28;20191;-81
2022/01/09 06:55:31;;;;;;;1999.90;999.90;;;5.40;99.90;;;;;;5055185;28;20178;-81
2022/01/09 06:57:57;;;;;;;1999.90;999.90;;;5.30;99.90;;;;;;5056021;28;20164;-81
2022/01/09 07:00:23;;;;;;;1999.90;999.90;;;5.30;99.90;;;;;;5055831;28;20207;-80
2022/01/09 07:02:49;;;;;;;1999.90;999.90;;;5.20;99.90;;;;;;5057278;28;20168;-80
2022/01/09 07:05:15;;;;;;;1999.90;999.90;;;5.30;99.90;;;;;;5056963;28;20854;-80
2022/01/09 07:07:41;;;;;;;1999.90;999.90;;;5.30;99.90;;;;;;5057080;28;20411;-80
2022/01/09 07:10:08;;;;;;;1999.90;999.90;;;5.30;99.90;;;;;;5055740;28;20410;-80
2022/01/09 07:12:34;;;;;;;1999.90;999.90;;;5.20;99.90;;;;;;5056151;28;20446;-80
2022/01/09 07:14:59;;;;;;;1999.90;999.90;;;5.20;99.90;;;;;;5055957;28;20191;-80
2022/01/09 07:17:25;;;;;;;1999.90;999.90;;;5.30;99.90;;;;;;5056896;28;20853;-80
2022/01/09 07:19:50;;;;;;;1999.90;999.90;;;5.30;99.90;;;;;;5056480;28;20167;-81
2022/01/09 07:22:16;;;;;;;1999.90;999.90;;;5.30;99.90;;;;;;5056610;28;20192;-81
2022/01/09 07:24:42;;;;;;;1999.90;999.90;;;5.20;99.90;;;;;;5056572;28;20172;-80
2022/01/09 07:27:07;;;;;;;1999.90;999.90;;;5.20;99.90;;;;;;5055887;28;20172;-80
2022/01/09 07:29:34;;;;;;;1999.90;999.90;;;5.20;99.90;;;;;;5055150;28;20206;-79
2022/01/09 07:32:00;;;;;;;1999.90;999.90;;;5.20;99.90;;;;;;5055063;28;20718;-80
2022/01/09 07:34:25;;;;;;;1999.90;999.90;;;5.20;99.90;;;;;;5054621;28;20164;-79
2022/01/09 07:36:51;;;;;;;1999.90;999.90;;;5.20;99.90;;;;;;5054698;28;20199;-80
2022/01/09 07:39:16;;;;;;;1999.90;999.90;;;5.10;99.90;;;;;;5054084;28;20175;-79
2022/01/09 07:41:42;;;;;;;1999.90;999.90;;;5.10;99.90;;;;;;5053986;28;20219;-80
2022/01/09 07:44:08;;;;;;;1999.90;999.90;;;5.10;99.90;;;;;;5054079;28;20172;-80
2022/01/09 07:46:34;;;;;;;1999.90;999.90;;;5.10;99.90;;;;;;5054482;28;20406;-80
2022/01/09 07:49:00;;;;;;;1999.90;999.90;;;5.20;99.90;;;;;;5054095;28;20186;-79
2022/01/09 07:51:26;;;;;;;1999.90;999.90;;;5.20;99.90;;;;;;5053712;28;20426;-79
2022/01/09 07:53:51;;;;;;;1999.90;999.90;;;5.10;99.90;;;;;;5053957;28;20792;-80
2022/01/09 07:56:17;;;;;;;1999.90;999.90;;;5.10;99.90;;;;;;5054082;28;20182;-80
2022/01/09 07:58:43;;;;;;;1999.90;999.90;;;5.10;99.90;;;;;;5053918;28;20644;-80
2022/01/09 08:01:08;;;;;;;1999.90;999.90;;;5.10;99.90;;;;;;5054002;28;20676;-80
2022/01/09 08:03:35;;;;;;;1999.90;999.90;;;5.10;99.90;;;;;;5053664;28;20214;-79
2022/01/09 08:06:01;;;;;;;1999.90;999.90;;;5.10;99.90;;;;;;5053524;28;20172;-80
2022/01/09 08:08:27;;;;;;;1999.90;999.90;;;5.10;99.90;;;;;;5054212;28;20410;-80
2022/01/09 08:10:52;;;;;;;1999.90;999.90;;;5.10;99.90;;;;;;5054779;28;20434;-80
2022/01/09 08:13:18;;;;;;;1999.90;999.90;;;5.00;99.90;;;;;;5053143;28;20696;-80
2022/01/09 08:15:44;;;;;;;1999.90;999.90;;;5.00;99.90;;;;;;5054235;28;20167;-80
2022/01/09 08:18:10;;;;;;;1999.90;999.90;;;5.10;99.90;;;;;;5054384;28;20445;-80
2022/01/09 08:20:35;;;;;;;1999.90;999.90;;;5.10;99.90;;;;;;5054707;28;20206;-79
2022/01/09 08:23:01;;;;;;;1999.90;999.90;;;5.20;99.90;;;;;;5054993;28;20641;-80
2022/01/09 08:25:27;;;;;;;1999.90;999.90;;;5.20;99.90;;;;;;5056235;28;20164;-79
2022/01/09 08:27:52;;;;;;;1999.90;999.90;;;5.20;99.90;;;;;;5056106;28;20550;-80
2022/01/09 08:30:19;;;;;;;1999.90;999.90;;;5.10;99.90;;;;;;5055466;28;20418;-80
2022/01/09 08:32:46;;;;;;;1999.90;999.90;;;5.20;99.90;;;;;;5055272;28;20211;-79
2022/01/09 08:35:12;;;;;;;1999.90;999.90;;;5.10;99.90;;;;;;5057940;28;20409;-80
2022/01/09 08:37:41;;;;;;;1999.90;999.90;;;5.20;99.90;;;;;;5057376;28;20873;-80
2022/01/09 08:40:08;;;;;;;1999.90;999.90;;;5.10;99.90;;;;;;5056650;28;20195;-80
2022/01/09 08:42:34;;;;;;;1999.90;999.90;;;5.10;99.90;;;;;;5056609;28;20501;-80
2022/01/09 08:44:59;;;;;;;1999.90;999.90;;;5.20;99.90;;;;;;5056120;28;20491;-80
2022/01/09 08:47:25;;;;;;;1999.90;999.90;;;5.20;99.90;;;;;;5054271;28;20172;-79
2022/01/09 08:49:51;;;;;;;1999.90;999.90;;;5.20;99.90;;;;;;5055022;28;20175;-80
2022/01/09 08:52:17;;;;;;;1999.90;999.90;;;5.20;99.90;;;;;;5054847;28;20199;-80
2022/01/09 08:54:43;;;;;;;1999.90;999.90;;;5.20;99.90;;;;;;5053208;28;20258;-78
2022/01/09 08:57:08;;;;;;;1999.90;999.90;;;5.30;99.90;;;;;;5054008;28;20207;-78
2022/01/09 08:59:34;;;;;;;1999.90;999.90;;;5.30;99.90;;;;;;5053518;28;20239;-78
2022/01/09 09:01:59;;;;;;;1999.90;999.90;;;5.30;99.90;;;;;;5053499;28;20274;-78
2022/01/09 09:04:25;;;;;;;1999.90;999.90;;;5.30;99.90;;;;;;5053430;28;20174;-78
2022/01/09 09:06:51;;;;;;;1999.90;999.90;;;5.40;99.90;;;;;;5053364;28;20246;-78
2022/01/09 09:09:17;;;;;;;1999.90;999.90;;;5.30;99.90;;;;;;5053691;28;20183;-78
2022/01/09 09:11:42;;;;;;;1999.90;999.90;;;5.30;99.90;;;;;;5053822;28;20418;-80
2022/01/09 09:14:08;;;;;;;1999.90;999.90;;;5.20;99.90;;;;;;5055198;28;20282;-80
2022/01/09 09:16:34;;;;;;;1999.90;999.90;;;5.10;99.90;;;;;;5055473;28;20168;-80
2022/01/09 09:19:00;;;;;;;1999.90;999.90;;;5.10;99.90;;;;;;5056035;28;20766;-80
2022/01/09 09:21:25;;;;;;;1999.90;999.90;;;5.10;99.90;;;;;;5058225;28;20513;-80
2022/01/09 09:23:51;;;;;;;1999.90;999.90;;;5.10;99.90;;;;;;5055033;28;20251;-79
2022/01/09 09:26:16;;;;;;;1999.90;999.90;;;5.10;99.90;;;;;;5055137;28;20176;-80
2022/01/09 09:28:43;;;;;;;1999.90;999.90;;;5.10;99.90;;;;;;5054310;28;20171;-80
2022/01/09 09:31:09;;;;;;;1999.90;999.90;;;5.10;99.90;;;;;;5054110;28;20191;-80
2022/01/09 09:33:35;;;;;;;1999.90;999.90;;;5.10;99.90;;;;;;5053954;28;20518;-79
2022/01/09 09:36:03;;;;;;;1999.90;999.90;;;5.10;99.90;;;;;;5053514;28;20176;-79
2022/01/09 09:38:30;;;;;;;1999.90;999.90;;;5.10;99.90;;;;;;5054299;28;20406;-79
2022/01/09 09:40:56;;;;;;;1999.90;999.90;;;5.10;99.90;;;;;;5054271;28;20207;-80
2022/01/09 09:43:22;;;;;;;1999.90;999.90;;;5.10;99.90;;;;;;5054345;28;20205;-80
2022/01/09 09:45:48;;;;;;;1999.90;999.90;;;5.20;99.90;;;;;;5053828;28;20229;-80
2022/01/09 09:48:14;;;;;;;1999.90;999.90;;;5.20;99.90;;;;;;5053365;28;20247;-80
2022/01/09 09:50:40;;;;;;;1999.90;999.90;;;5.20;99.90;;;;;;5053399;28;20195;-80
2022/01/09 09:53:06;;;;;;;1999.90;999.90;;;5.20;99.90;;;;;;5054449;28;20452;-80
2022/01/09 09:55:32;;;;;;;1999.90;999.90;;;5.30;99.90;;;;;;5052839;28;20203;-80
2022/01/09 09:57:58;;;;;;;1999.90;999.90;;;5.20;99.90;;;;;;5053000;28;20807;-80
2022/01/09 10:00:25;;;;;;;1999.90;999.90;;;5.30;99.90;;;;;;5053812;28;20597;-80
2022/01/09 10:03:01;;;;;;;1999.90;999.90;;;5.30;99.90;;;;;;5051642;28;20445;-80
2022/01/09 10:05:50;;;;;;;1999.90;999.90;;;5.30;99.90;;;;;;5064161;28;20402;-83
2022/01/09 10:08:37;;;;;;;1999.90;999.90;;;5.30;99.90;;;;;;5043946;28;20414;-79
2022/01/09 10:11:17;;;;;;;1999.90;999.90;;;5.30;99.90;;;;;;5062000;28;20192;-82
2022/01/09 10:13:47;;;;;;;1999.90;999.90;;;5.40;99.90;;;;;;5059680;28;20442;-82
2022/01/09 10:20:10;;;;;;;1999.90;999.90;;;5.50;99.90;;;;;;5061587;28;20444;-83
2022/01/09 10:29:50;;;;;;;1999.90;999.90;;;5.50;99.90;;;;;;5053165;28;20953;-80
2022/01/09 10:32:16;;;;;;;1999.90;999.90;;;5.40;99.90;;;;;;5053610;28;20792;-79
2022/01/09 10:34:42;;;;;;;1999.90;999.90;;;5.40;99.90;;;;;;5052825;28;20485;-79
2022/01/09 10:37:17;;;;;;;1999.90;999.90;;;5.30;99.90;;;;;;5057119;28;20430;-79
2022/01/09 10:39:43;;;;;;;1999.90;999.90;;;5.30;99.90;;;;;;5062050;28;20167;-80
2022/01/09 10:42:12;;;;;;;1999.90;999.90;;;5.30;99.90;;;;;;5062095;28;20445;-80
2022/01/09 10:44:39;;;;;;;1999.90;999.90;;;5.30;99.90;;;;;;5060757;28;20250;-80
2022/01/09 10:47:08;;;;;;;1999.90;999.90;;;5.20;99.90;;;;;;5058838;28;20402;-82
2022/01/09 10:49:44;;;;;;;1999.90;999.90;;;5.30;99.90;;;;;;5055767;28;20445;-83
2022/01/09 10:52:28;;;;;;;1999.90;999.90;;;5.30;99.90;;;;;;5039526;28;20458;-82
2022/01/09 10:54:58;;;;;;;1999.90;999.90;;;5.30;99.90;;;;;;5035327;28;20411;-82
2022/01/09 10:57:32;;;;;;;1999.90;999.90;;;5.40;99.90;;;;;;5037893;28;20407;-82
2022/01/09 11:00:09;;;;;;;1999.90;999.90;;;5.40;99.90;;;;;;5037826;28;20422;-82
2022/01/09 11:02:35;;;;;;;1999.90;999.90;;;5.40;99.90;;;;;;5035475;28;20491;-81
2022/01/09 11:05:01;;;;;;;1999.90;999.90;;;5.40;99.90;;;;;;5035947;28;20427;-81
2022/01/09 11:07:26;;;;;;;1999.90;999.90;;;5.50;99.90;;;;;;5036608;28;20184;-82
2022/01/09 11:09:53;;;;;;;1999.90;999.90;;;5.50;99.90;;;;;;5035882;28;20218;-81
2022/01/09 11:12:21;;;;;;;1999.90;999.90;;;5.60;99.90;;;;;;5035573;28;20463;-80
2022/01/09 11:14:49;;;;;;;1999.90;999.90;;;5.60;99.90;;;;;;5037370;28;20411;-83
2022/01/09 11:17:17;;;;;;;1999.90;999.90;;;5.60;99.90;;;;;;5038957;28;20446;-83
2022/01/09 11:19:43;;;;;;;1999.90;999.90;;;5.60;99.90;;;;;;5036902;28;20419;-81
2022/01/09 11:22:10;;;;;;;1999.90;999.90;;;5.60;99.90;;;;;;5035914;28;20435;-83
2022/01/09 11:25:14;;;;;;;1999.90;999.90;;;5.70;99.90;;;;;;5035014;28;20407;-79
2022/01/09 11:27:49;;;;;;;1999.90;999.90;;;5.70;99.90;;;;;;5033366;28;20746;-78
2022/01/09 11:30:21;;;;;;;1999.90;999.90;;;5.80;99.90;;;;;;5032977;28;20513;-78
2022/01/09 11:33:05;;;;;;;1999.90;999.90;;;5.90;99.90;;;;;;5033845;28;20200;-79
2022/01/09 11:35:52;;;;;;;1999.90;999.90;;;5.90;99.90;;;;;;5033312;28;20403;-77
2022/01/09 11:38:46;;;;;;;1999.90;999.90;;;5.90;99.90;;;;;;5033308;28;20856;-79
2022/01/09 12:46:09;;;;;;;1999.90;999.90;;;7.40;99.90;;;;;;5091364;28;20982;-79
2022/01/09 12:49:27;;;;;;;;;;;;;;;;;;;;;
2022/01/09 13:41:03;;;;;;;1999.90;999.90;;;11.70;99.90;;;;;;4414336;26;20494;-83
2022/01/09 13:47:39;;;;;;;;;;;;;;;;;;;;;
2022/01/09 14:11:27;;;;;;;1999.90;999.90;;;11.20;99.90;;;;;;5849398;22;20487;-78
2022/01/09 14:31:13;;;;;;;1999.90;999.90;;;9.80;99.90;;;;;;4973038;28;20469;-78
2022/01/09 14:33:57;;;;;;;1999.90;999.90;;;9.40;99.90;;;;;;4947788;28;20469;-77
2022/01/09 14:39:45;;;;;;;1999.90;999.90;;;9.80;99.90;;;;;;4971734;28;20423;-76
2022/01/09 14:42:10;;;;;;;1999.90;999.90;;;9.70;99.90;;;;;;4967778;28;20435;-76
2022/01/09 14:44:37;;;;;;;1999.90;999.90;;;9.50;99.90;;;;;;4980246;28;21170;-76
2022/01/09 14:47:03;;;;;;;1999.90;999.90;;;9.20;99.90;;;;;;5009214;28;20208;-76
2022/01/09 14:49:30;;;;;;;1999.90;999.90;;;9.20;99.90;;;;;;5009050;28;20475;-76
2022/01/09 14:51:56;;;;;;;1999.90;999.90;;;9.50;99.90;;;;;;5008984;28;20445;-76
2022/01/09 14:54:22;;;;;;;1999.90;999.90;;;9.70;99.90;;;;;;5009394;28;20470;-76
2022/01/09 14:56:48;;;;;;;1999.90;999.90;;;10.00;99.90;;;;;;5009643;28;20408;-76
2022/01/09 14:59:16;;;;;;;1999.90;999.90;;;9.90;99.90;;;;;;5009202;28;20642;-76
2022/01/09 15:01:42;;;;;;;1999.90;999.90;;;9.40;99.90;;;;;;5009678;28;20516;-77